Terminal Aerodrome Forecast
Issued by NWS

Home | Current Version | Previous Version | Text Only | Print | Product List | Glossary On
Versions: 1 2 3 4 5 6 7 8 9 10 11 12 13 14 15 16 17 18 19 20 21 22 23 24 25
919
FTUS46 KSEW 260304 AAA
TAFSEA
TAF AMD
KSEA 260304Z 2603/2706 VRB03KT P6SM BKN035 OVC080
     FM261200 VRB03KT P6SM SCT012 BKN035
      TEMPO 2614/2618 BKN012 BKN035
     FM262000 34007KT P6SM FEW040 SCT250
     FM270000 36009KT P6SM SCT250=

USA.gov is the U.S. government's official web portal to all federal, state and local government web resources and services.